Time;durP1;ratioP1;P1;durP2;ratioP2;P2;SDS_P1;SDS_P2;PMS_P1;PMS_P2;Temp;Humidity;BMP_temperature;BMP_pressure;BME280_temperature;BME280_humidity;BME280_pressure;Samples;Min_cycle;Max_cycle;Signal;HPM_P1;HPM_P2
2023/05/13 00:01:40;;;;;;;9.07;6.47;;;10.40;99.90;;;;;;4813656;29;20604;-60
2023/05/13 00:04:08;;;;;;;11.07;7.45;;;10.40;99.90;;;;;;4823639;29;20059;-60
2023/05/13 00:06:38;;;;;;;;;;;10.40;99.90;;;;;;4829917;29;20061;-60
2023/05/13 00:09:08;;;;;;;10.75;5.97;;;10.30;99.90;;;;;;4832819;29;19931;-60
2023/05/13 00:11:37;;;;;;;9.77;6.25;;;10.30;99.90;;;;;;4819618;29;20499;-59
2023/05/13 00:14:08;;;;;;;8.80;5.55;;;10.20;99.90;;;;;;4817270;29;20066;-60
2023/05/13 00:16:39;;;;;;;8.50;5.88;;;10.20;99.90;;;;;;4817252;29;20055;-60
2023/05/13 00:19:07;;;;;;;9.35;5.50;;;10.10;99.90;;;;;;4812266;29;20054;-60
2023/05/13 00:21:35;;;;;;;8.15;5.30;;;10.10;99.90;;;;;;4832812;29;20062;-59
2023/05/13 00:24:04;;;;;;;10.20;5.90;;;10.00;99.90;;;;;;4818280;29;20387;-59
2023/05/13 00:26:32;;;;;;;9.63;5.63;;;10.00;99.90;;;;;;4819382;29;20054;-60
2023/05/13 00:29:00;;;;;;;8.65;4.95;;;9.90;99.90;;;;;;4818644;29;20556;-60
2023/05/13 00:31:28;;;;;;;7.28;4.95;;;9.80;99.90;;;;;;4816927;29;20055;-60
2023/05/13 00:33:56;;;;;;;10.13;6.15;;;9.70;99.90;;;;;;4829317;29;20046;-59
2023/05/13 00:36:26;;;;;;;6.10;4.55;;;9.70;99.90;;;;;;4818487;29;20057;-60
2023/05/13 00:38:54;;;;;;;6.07;4.35;;;9.60;99.90;;;;;;4818154;29;20435;-59
2023/05/13 00:41:22;;;;;;;6.75;4.30;;;9.60;99.90;;;;;;4833434;29;20046;-59
2023/05/13 00:43:54;;;;;;;5.45;4.00;;;9.50;99.90;;;;;;4818635;29;20061;-60
2023/05/13 00:46:23;;;;;;;7.13;4.35;;;9.50;99.90;;;;;;4818685;29;20399;-58
2023/05/13 00:48:51;;;;;;;7.80;4.32;;;9.30;99.90;;;;;;4819163;29;20050;-60
2023/05/13 00:51:19;;;;;;;7.45;4.82;;;9.30;99.90;;;;;;4822473;29;20050;-60
2023/05/13 00:53:48;;;;;;;6.75;4.13;;;9.30;99.90;;;;;;4836301;29;20487;-59
2023/05/13 00:56:20;;;;;;;9.27;5.05;;;9.20;99.90;;;;;;4822405;29;20411;-59
2023/05/13 00:58:49;;;;;;;5.72;4.10;;;9.10;99.90;;;;;;4821375;29;20053;-60
2023/05/13 01:01:27;;;;;;;7.05;5.05;;;9.10;99.90;;;;;;4835002;29;20046;-60
2023/05/13 01:04:19;;;;;;;6.88;4.40;;;9.10;99.90;;;;;;4813063;29;20058;-59
2023/05/13 01:07:16;;;;;;;10.02;4.35;;;9.10;99.90;;;;;;4834113;29;20053;-60
2023/05/13 01:10:04;;;;;;;5.70;4.20;;;9.00;99.90;;;;;;4830157;29;20420;-59
2023/05/13 01:12:39;;;;;;;7.13;4.68;;;9.00;99.90;;;;;;4818290;29;20482;-59
2023/05/13 01:15:20;;;;;;;7.38;4.97;;;9.00;99.90;;;;;;4813139;29;20050;-60
2023/05/13 01:18:05;;;;;;;10.13;5.20;;;8.90;99.90;;;;;;4814159;29;20054;-60
2023/05/13 01:20:34;;;;;;;9.70;5.47;;;8.90;99.90;;;;;;4818074;29;20042;-59
2023/05/13 01:23:02;;;;;;;10.80;5.80;;;8.80;99.90;;;;;;4831944;29;20070;-60
2023/05/13 01:25:31;;;;;;;14.05;7.15;;;8.70;99.90;;;;;;4825964;29;20049;-59
2023/05/13 01:28:00;;;;;;;10.73;6.60;;;8.70;99.90;;;;;;4832790;29;20046;-60
2023/05/13 01:30:30;;;;;;;11.63;7.18;;;8.70;99.90;;;;;;4816662;29;20055;-59
2023/05/13 01:32:58;;;;;;;14.02;6.88;;;8.70;99.90;;;;;;4802969;29;20051;-60
2023/05/13 01:35:30;;;;;;;12.75;6.97;;;8.60;99.90;;;;;;4826228;29;20066;-59
2023/05/13 01:38:02;;;;;;;11.43;6.47;;;8.60;99.90;;;;;;4819242;29;20057;-59
2023/05/13 01:40:32;;;;;;;13.35;6.95;;;8.60;99.90;;;;;;4804998;29;20057;-59
2023/05/13 01:43:04;;;;;;;15.50;7.28;;;8.50;99.90;;;;;;4805960;29;20518;-60
2023/05/13 01:45:32;;;;;;;12.35;6.97;;;8.50;99.90;;;;;;4835438;29;20129;-59
2023/05/13 01:48:01;;;;;;;16.35;8.85;;;8.50;99.90;;;;;;4825704;29;20490;-59
2023/05/13 01:50:40;;;;;;;13.40;7.95;;;8.40;99.90;;;;;;4820810;29;20057;-60
2023/05/13 01:53:12;;;;;;;14.57;7.75;;;8.30;99.90;;;;;;4806906;29;20058;-59
2023/05/13 01:55:42;;;;;;;14.63;8.52;;;8.30;99.90;;;;;;4823097;29;20369;-60
2023/05/13 01:58:12;;;;;;;15.55;8.80;;;;;;;;;;4820680;29;20622;-60
2023/05/13 02:00:43;;;;;;;13.95;7.65;;;8.20;99.90;;;;;;4803730;29;20058;-58
2023/05/13 02:03:11;;;;;;;14.25;8.02;;;8.20;99.90;;;;;;4827140;29;20058;-60
2023/05/13 02:05:41;;;;;;;13.77;7.80;;;8.20;99.90;;;;;;4814406;29;20049;-59
2023/05/13 02:08:09;;;;;;;16.80;8.38;;;8.10;99.90;;;;;;4835266;29;20066;-58
2023/05/13 02:10:38;;;;;;;13.32;8.10;;;8.10;99.90;;;;;;4834058;29;20057;-59
2023/05/13 02:13:06;;;;;;;17.77;8.48;;;8.10;99.90;;;;;;4819238;29;20047;-58
2023/05/13 02:15:34;;;;;;;23.05;9.48;;;8.00;99.90;;;;;;4822889;29;20061;-58
2023/05/13 02:18:02;;;;;;;15.25;7.60;;;8.00;99.90;;;;;;4824312;29;20062;-58
2023/05/13 02:20:30;;;;;;;14.23;8.10;;;8.00;99.90;;;;;;4818317;29;20066;-59
2023/05/13 02:22:58;;;;;;;15.07;8.25;;;7.90;99.90;;;;;;4814788;29;20057;-58
2023/05/13 02:25:28;;;;;;;15.50;8.35;;;7.80;99.90;;;;;;4837705;29;20053;-58
2023/05/13 02:27:55;;;;;;;16.02;8.55;;;7.80;99.90;;;;;;4824001;29;20061;-59
2023/05/13 02:30:25;;;;;;;19.08;8.35;;;7.80;99.90;;;;;;4824247;29;20055;-60
2023/05/13 02:32:54;;;;;;;;;;;7.70;99.90;;;;;;4824700;29;20388;-59
2023/05/13 02:35:24;;;;;;;15.27;8.10;;;7.70;99.90;;;;;;4837771;29;19925;-58
2023/05/13 02:37:53;;;;;;;16.40;8.07;;;7.60;99.90;;;;;;4823797;29;20058;-58
2023/05/13 02:40:21;;;;;;;18.90;9.45;;;7.60;99.90;;;;;;4837224;29;20058;-58
2023/05/13 02:42:50;;;;;;;18.80;9.63;;;7.60;99.90;;;;;;4837370;29;20043;-58
2023/05/13 02:45:24;;;;;;;17.50;9.23;;;7.50;99.90;;;;;;4826528;29;20046;-58
2023/05/13 02:47:56;;;;;;;20.02;9.73;;;7.50;99.90;;;;;;4805911;29;20047;-59
2023/05/13 02:50:25;;;;;;;18.80;9.60;;;7.50;99.90;;;;;;4819316;29;20067;-58
2023/05/13 02:52:55;;;;;;;16.92;8.60;;;7.40;99.90;;;;;;4822124;29;20038;-58
2023/05/13 02:55:24;;;;;;;26.70;10.67;;;7.40;99.90;;;;;;4829096;29;20046;-59
2023/05/13 02:57:52;;;;;;;16.50;8.13;;;7.40;99.90;;;;;;4823196;29;20056;-59
2023/05/13 03:00:21;;;;;;;14.43;8.10;;;7.30;99.90;;;;;;4837598;29;20050;-59
2023/05/13 03:02:49;;;;;;;16.98;8.88;;;7.20;99.90;;;;;;4837101;29;20519;-59
2023/05/13 03:05:18;;;;;;;16.70;9.15;;;7.20;99.90;;;;;;4837132;29;20047;-58
2023/05/13 03:07:45;;;;;;;19.73;9.63;;;7.20;99.90;;;;;;4823735;29;20057;-59
2023/05/13 03:10:13;;;;;;;19.10;10.07;;;7.20;99.90;;;;;;4837315;29;20058;-59
2023/05/13 03:12:42;;;;;;;15.55;8.43;;;7.10;99.90;;;;;;4836072;29;20061;-58
2023/05/13 03:15:10;;;;;;;17.52;8.52;;;7.10;99.90;;;;;;4807713;29;20053;-58
2023/05/13 03:17:38;;;;;;;15.10;8.93;;;7.10;99.90;;;;;;4805247;29;20065;-58
2023/05/13 03:20:07;;;;;;;17.98;9.00;;;7.10;99.90;;;;;;4830281;29;20415;-58
2023/05/13 03:22:37;;;;;;;17.77;8.83;;;7.00;99.90;;;;;;4836348;29;20054;-58
2023/05/13 03:25:06;;;;;;;15.98;8.77;;;7.00;99.90;;;;;;4828082;29;20059;-57
2023/05/13 03:27:44;;;;;;;17.80;7.80;;;7.00;99.90;;;;;;4822112;29;20051;-59
2023/05/13 03:30:13;;;;;;;16.25;8.13;;;;;;;;;;4821841;29;20058;-58
2023/05/13 03:32:51;;;;;;;16.45;8.57;;;6.90;99.90;;;;;;4821734;29;20054;-58
2023/05/13 03:35:19;;;;;;;16.63;9.18;;;6.90;99.90;;;;;;4829347;29;20069;-59
2023/05/13 03:37:47;;;;;;;15.13;8.98;;;6.80;99.90;;;;;;4821256;29;20053;-58
2023/05/13 03:40:16;;;;;;;18.83;9.73;;;6.80;99.90;;;;;;4807023;29;20050;-58
2023/05/13 03:42:44;;;;;;;17.20;9.73;;;6.80;99.90;;;;;;4820998;29;20057;-58
2023/05/13 03:45:12;;;;;;;29.20;10.07;;;6.70;99.90;;;;;;4836932;29;20403;-58
2023/05/13 03:47:43;;;;;;;18.70;9.90;;;6.70;99.90;;;;;;4836710;29;20049;-58
2023/05/13 03:50:16;;;;;;;17.05;10.15;;;6.60;99.90;;;;;;4836954;29;20411;-59
2023/05/13 03:52:45;;;;;;;;;;;6.60;99.90;;;;;;4836973;29;20055;-60
2023/05/13 03:55:15;;;;;;;17.13;9.15;;;6.60;99.90;;;;;;4822387;29;19944;-60
2023/05/13 03:57:47;;;;;;;19.60;10.52;;;6.60;99.90;;;;;;4836634;29;20499;-60
2023/05/13 04:00:17;;;;;;;18.48;9.82;;;6.60;99.90;;;;;;4822945;29;20050;-60
2023/05/13 04:02:48;;;;;;;17.48;9.63;;;6.60;99.90;;;;;;4836518;29;20051;-60
2023/05/13 04:05:16;;;;;;;17.15;9.40;;;6.50;99.90;;;;;;4820923;29;20065;-60
2023/05/13 04:07:45;;;;;;;;;;;6.50;99.90;;;;;;4836454;29;20230;-60
2023/05/13 04:10:14;;;;;;;22.35;10.75;;;6.50;99.90;;;;;;4822991;29;19935;-59
2023/05/13 04:12:42;;;;;;;18.60;10.43;;;6.40;99.90;;;;;;4835463;29;20057;-59
2023/05/13 04:15:10;;;;;;;21.00;11.15;;;6.50;99.90;;;;;;4813069;29;20050;-60
2023/05/13 04:17:39;;;;;;;22.05;10.43;;;6.50;99.90;;;;;;4804989;29;20046;-62
2023/05/13 04:20:08;;;;;;;21.60;11.15;;;6.60;99.90;;;;;;4815904;29;20050;-59
2023/05/13 04:22:36;;;;;;;21.77;12.07;;;6.60;99.90;;;;;;4821366;29;20085;-58
2023/05/13 04:25:04;;;;;;;19.67;11.18;;;6.60;99.90;;;;;;4825198;29;20062;-58
2023/05/13 04:27:32;;;;;;;20.75;11.23;;;6.70;99.90;;;;;;4826099;29;20050;-59
2023/05/13 04:30:10;;;;;;;26.95;12.65;;;6.70;99.90;;;;;;4840060;29;20050;-61
2023/05/13 04:32:39;;;;;;;28.40;12.30;;;6.70;99.90;;;;;;4840113;29;20165;-58
2023/05/13 04:35:09;;;;;;;25.58;12.48;;;6.80;99.90;;;;;;4823884;29;20049;-58
2023/05/13 04:37:37;;;;;;;22.75;12.70;;;6.80;99.90;;;;;;4821089;29;20047;-58
2023/05/13 04:40:08;;;;;;;23.70;12.25;;;6.90;99.90;;;;;;4837921;29;20050;-58
2023/05/13 04:42:37;;;;;;;21.80;11.63;;;7.00;99.90;;;;;;4824849;29;20391;-60
2023/05/13 04:45:06;;;;;;;22.45;13.05;;;7.00;99.90;;;;;;4839333;29;20489;-59
2023/05/13 04:47:34;;;;;;;26.60;11.85;;;7.00;99.90;;;;;;4833293;29;20407;-58
2023/05/13 04:50:06;;;;;;;23.70;12.23;;;7.00;99.90;;;;;;4828094;29;20050;-59
2023/05/13 04:52:36;;;;;;;23.73;12.63;;;7.10;99.90;;;;;;4820887;29;20043;-58
2023/05/13 04:55:05;;;;;;;;;;;7.10;99.90;;;;;;4821054;29;20078;-59
2023/05/13 04:57:33;;;;;;;25.63;11.55;;;7.10;99.90;;;;;;4836554;29;19924;-59
2023/05/13 05:00:04;;;;;;;21.23;12.00;;;7.20;99.90;;;;;;4836333;29;20050;-59
2023/05/13 05:02:35;;;;;;;24.67;11.32;;;7.30;99.90;;;;;;4815148;29;20043;-59
2023/05/13 05:05:04;;;;;;;22.10;11.73;;;7.40;99.90;;;;;;4831507;29;20058;-59
2023/05/13 05:07:34;;;;;;;24.08;12.10;;;7.40;99.90;;;;;;4832286;29;20050;-59
2023/05/13 05:10:02;;;;;;;25.00;12.55;;;7.40;99.90;;;;;;4836530;29;20058;-58
2023/05/13 05:12:31;;;;;;;23.95;12.23;;;7.50;99.90;;;;;;4833314;29;20042;-58
2023/05/13 05:14:59;;;;;;;26.38;13.10;;;7.60;99.90;;;;;;4831798;29;20674;-58
2023/05/13 05:17:31;;;;;;;22.80;12.43;;;7.50;99.90;;;;;;4832403;29;20057;-59
2023/05/13 05:20:02;;;;;;;24.20;12.57;;;7.60;99.90;;;;;;4818801;29;20050;-58
2023/05/13 05:22:30;;;;;;;22.25;11.55;;;7.60;99.90;;;;;;4834041;29;20441;-58
2023/05/13 05:24:58;;;;;;;19.48;10.90;;;7.60;99.90;;;;;;4838492;29;20042;-59
2023/05/13 05:27:26;;;;;;;19.60;12.15;;;7.60;99.90;;;;;;4829830;29;20049;-59
2023/05/13 05:29:58;;;;;;;21.17;11.70;;;7.70;99.90;;;;;;4835980;29;20041;-59
2023/05/13 05:32:26;;;;;;;20.92;11.77;;;7.70;99.90;;;;;;4834931;29;20047;-60
2023/05/13 05:34:54;;;;;;;18.92;11.30;;;7.70;99.90;;;;;;4839158;29;20050;-60
2023/05/13 05:37:22;;;;;;;24.17;12.23;;;7.70;99.90;;;;;;4822996;29;20053;-59
2023/05/13 05:39:51;;;;;;;20.58;11.00;;;7.80;99.90;;;;;;4846869;29;20050;-59
2023/05/13 05:42:22;;;;;;;22.27;12.15;;;7.80;99.90;;;;;;4838724;29;20042;-59
2023/05/13 05:44:50;;;;;;;24.50;12.98;;;7.90;99.90;;;;;;4833204;29;20542;-59
2023/05/13 05:47:18;;;;;;;16.67;10.35;;;8.00;99.90;;;;;;4819293;29;20066;-59
2023/05/13 05:49:46;;;;;;;18.92;11.88;;;8.10;99.90;;;;;;4832309;29;20046;-60
2023/05/13 05:52:14;;;;;;;17.75;10.95;;;8.20;99.90;;;;;;4836181;29;20940;-59
2023/05/13 05:54:43;;;;;;;15.82;9.65;;;8.30;99.90;;;;;;4837532;29;20517;-59
2023/05/13 05:57:11;;;;;;;16.65;9.25;;;8.40;99.90;;;;;;4838101;29;20042;-58
2023/05/13 05:59:39;;;;;;;15.82;9.50;;;;;;;;;;4837753;29;20054;-57
2023/05/13 06:02:07;;;;;;;17.27;9.70;;;8.60;99.90;;;;;;4834922;29;20076;-59
2023/05/13 06:04:36;;;;;;;14.30;9.32;;;8.60;99.90;;;;;;4832791;29;20639;-59
2023/05/13 06:07:04;;;;;;;13.60;8.70;;;8.60;99.90;;;;;;4836329;29;20053;-59
2023/05/13 06:09:32;;;;;;;14.45;9.30;;;8.70;99.90;;;;;;4837734;29;20046;-59
2023/05/13 06:12:01;;;;;;;16.73;9.25;;;8.70;99.90;;;;;;4838675;29;20057;-59
2023/05/13 06:14:32;;;;;;;13.90;8.48;;;8.70;99.90;;;;;;4833281;29;20050;-59
2023/05/13 06:17:00;;;;;;;14.00;8.32;;;8.70;99.90;;;;;;4819333;29;20045;-60
2023/05/13 06:19:30;;;;;;;12.07;8.07;;;;;;;;;;4829631;29;20053;-59
2023/05/13 06:21:57;;;;;;;15.98;9.88;;;8.70;99.90;;;;;;4833156;29;20057;-59
2023/05/13 06:24:30;;;;;;;15.15;8.40;;;8.70;99.90;;;;;;4835432;29;20370;-59
2023/05/13 06:26:58;;;;;;;11.60;8.05;;;8.70;99.90;;;;;;4835522;29;20053;-60
2023/05/13 06:29:26;;;;;;;15.07;8.70;;;8.70;99.90;;;;;;4819125;29;20499;-59
2023/05/13 06:31:54;;;;;;;15.80;8.90;;;8.60;99.90;;;;;;4834891;29;20046;-60
2023/05/13 06:34:22;;;;;;;16.52;9.40;;;8.60;99.90;;;;;;4827877;29;20049;-60
2023/05/13 06:36:51;;;;;;;14.00;9.20;;;;;;;;;;4835760;29;20045;-58
2023/05/13 06:39:19;;;;;;;15.55;9.55;;;8.80;99.90;;;;;;4836512;29;20054;-59
2023/05/13 06:41:47;;;;;;;15.43;9.60;;;8.80;99.90;;;;;;4837786;29;20069;-58
2023/05/13 06:44:16;;;;;;;17.10;9.70;;;8.90;99.90;;;;;;4822430;29;20042;-59
2023/05/13 06:46:46;;;;;;;16.05;9.80;;;9.00;99.90;;;;;;4836025;29;20773;-59
2023/05/13 06:49:14;;;;;;;12.90;8.55;;;9.10;99.90;;;;;;4829792;29;20057;-58
2023/05/13 06:51:42;;;;;;;14.98;8.93;;;9.10;99.90;;;;;;4820087;29;20065;-58
2023/05/13 06:54:09;;;;;;;12.15;8.38;;;9.10;99.90;;;;;;4835645;29;20050;-58
2023/05/13 06:56:37;;;;;;;14.57;8.75;;;9.20;99.90;;;;;;4820543;29;20054;-59
2023/05/13 06:59:05;;;;;;;14.75;9.40;;;9.30;99.90;;;;;;4835612;29;20054;-58
2023/05/13 07:01:32;;;;;;;15.50;9.43;;;9.30;99.90;;;;;;4835353;29;20064;-58
2023/05/13 07:04:01;;;;;;;14.13;9.70;;;9.30;99.90;;;;;;4826985;29;20061;-60
2023/05/13 07:06:29;;;;;;;13.68;7.93;;;9.30;99.90;;;;;;4824806;29;20054;-59
2023/05/13 07:08:57;;;;;;;12.75;8.35;;;9.40;99.90;;;;;;4821541;29;20053;-58
2023/05/13 07:11:27;;;;;;;13.93;8.40;;;9.40;99.90;;;;;;4836248;29;20057;-59
2023/05/13 07:13:56;;;;;;;13.82;9.13;;;9.50;99.90;;;;;;4834595;29;20343;-59
2023/05/13 07:16:24;;;;;;;14.77;8.43;;;9.50;99.90;;;;;;4834749;29;20046;-59
2023/05/13 07:18:53;;;;;;;14.27;9.02;;;9.50;99.90;;;;;;4834515;29;20042;-59
2023/05/13 07:21:22;;;;;;;15.23;8.93;;;9.60;99.90;;;;;;4837118;29;20518;-58
2023/05/13 07:23:50;;;;;;;12.70;8.57;;;9.60;99.90;;;;;;4836782;29;20071;-59
2023/05/13 07:26:20;;;;;;;22.15;10.05;;;9.70;99.90;;;;;;4838625;29;20383;-59
2023/05/13 07:28:48;;;;;;;15.50;9.55;;;9.80;99.90;;;;;;4834487;29;20047;-58
2023/05/13 07:31:17;;;;;;;14.88;7.88;;;9.80;99.90;;;;;;4831394;29;20244;-59
2023/05/13 07:33:45;;;;;;;15.13;8.68;;;9.90;99.90;;;;;;4834297;29;20050;-60
2023/05/13 07:36:14;;;;;;;15.98;9.35;;;10.00;99.90;;;;;;4827242;29;20050;-59
2023/05/13 07:38:43;;;;;;;12.93;8.40;;;10.10;99.90;;;;;;4837757;29;20042;-58
2023/05/13 07:41:11;;;;;;;12.43;8.02;;;10.20;99.90;;;;;;4837561;29;20371;-60
2023/05/13 07:43:39;;;;;;;15.57;8.73;;;10.30;99.90;;;;;;4821016;29;20050;-59
2023/05/13 07:46:08;;;;;;;13.32;8.50;;;;;;;;;;4838362;29;20053;-59
2023/05/13 07:48:36;;;;;;;12.85;8.00;;;10.40;99.90;;;;;;4836428;29;20641;-60
2023/05/13 07:51:04;;;;;;;15.02;7.38;;;10.50;99.90;;;;;;4837356;29;20050;-59
2023/05/13 07:53:32;;;;;;;13.27;8.27;;;10.50;99.90;;;;;;4836634;29;20061;-59
2023/05/13 07:56:00;;;;;;;12.57;7.57;;;10.60;99.90;;;;;;4825226;29;20050;-59
2023/05/13 07:58:27;;;;;;;14.15;8.48;;;10.70;99.90;;;;;;4830663;29;20410;-60
2023/05/13 08:00:56;;;;;;;12.00;7.57;;;;;;;;;;4816728;29;20043;-59
2023/05/13 08:03:24;;;;;;;13.55;8.68;;;10.80;99.90;;;;;;4833301;29;20042;-59
2023/05/13 08:05:52;;;;;;;13.25;8.68;;;10.80;99.90;;;;;;4821415;29;20042;-59
2023/05/13 08:08:20;;;;;;;14.50;8.30;;;10.80;99.90;;;;;;4831489;29;20057;-59
2023/05/13 08:10:48;;;;;;;10.20;7.35;;;10.80;99.90;;;;;;4837350;29;20606;-59
2023/05/13 08:13:21;;;;;;;11.88;8.43;;;10.80;99.90;;;;;;4836923;29;20058;-59
2023/05/13 08:15:48;;;;;;;10.65;7.18;;;10.70;99.90;;;;;;4835844;29;20438;-59
2023/05/13 08:18:16;;;;;;;11.73;7.30;;;11.00;99.90;;;;;;4837127;29;20513;-59
2023/05/13 08:20:44;;;;;;;12.43;8.05;;;11.00;99.90;;;;;;4834265;29;20081;-60
2023/05/13 08:23:12;;;;;;;12.48;7.47;;;11.00;99.90;;;;;;4830003;29;20061;-59
2023/05/13 08:25:40;;;;;;;12.88;8.32;;;11.10;99.90;;;;;;4836132;29;20060;-60
2023/05/13 08:28:07;;;;;;;10.77;7.40;;;11.20;99.90;;;;;;4837612;29;20050;-57
2023/05/13 08:30:35;;;;;;;9.93;6.82;;;11.10;99.90;;;;;;4835630;29;20049;-59
2023/05/13 08:33:04;;;;;;;13.68;7.43;;;11.20;99.90;;;;;;4836769;29;20054;-59
2023/05/13 08:35:35;;;;;;;10.88;8.10;;;11.20;99.90;;;;;;4829854;29;20521;-59
2023/05/13 08:38:04;;;;;;;9.98;7.28;;;11.30;99.90;;;;;;4836722;29;20084;-59
2023/05/13 08:40:33;;;;;;;9.93;7.40;;;11.40;99.90;;;;;;4837522;29;20053;-59
2023/05/13 08:43:05;;;;;;;10.73;7.05;;;11.50;99.90;;;;;;4834301;29;20058;-59
2023/05/13 08:45:35;;;;;;;10.57;7.20;;;11.60;99.90;;;;;;4820571;29;20054;-57
2023/05/13 08:48:04;;;;;;;10.10;7.00;;;11.70;99.90;;;;;;4835705;29;20260;-60
2023/05/13 08:50:33;;;;;;;11.48;7.55;;;11.80;99.90;;;;;;4824922;29;20049;-59
2023/05/13 08:53:01;;;;;;;10.65;7.15;;;11.90;99.90;;;;;;4827317;29;20077;-59
2023/05/13 08:55:30;;;;;;;10.00;7.25;;;12.00;99.90;;;;;;4834664;29;20050;-60
2023/05/13 08:57:58;;;;;;;9.43;6.97;;;12.10;99.90;;;;;;4836863;29;20053;-58
2023/05/13 09:00:26;;;;;;;10.77;7.32;;;12.10;99.90;;;;;;4836110;29;20049;-58
2023/05/13 09:02:54;;;;;;;11.45;7.07;;;12.30;99.90;;;;;;4837069;29;20076;-59
2023/05/13 09:05:23;;;;;;;13.77;7.28;;;12.20;99.90;;;;;;4829479;29;20057;-59
2023/05/13 09:07:52;;;;;;;9.88;6.43;;;12.40;99.90;;;;;;4836202;29;20050;-58
2023/05/13 09:10:20;;;;;;;12.57;7.55;;;12.40;99.90;;;;;;4840264;29;20061;-60
2023/05/13 09:12:53;;;;;;;10.50;7.30;;;12.50;99.90;;;;;;4839289;29;20065;-62
2023/05/13 09:15:23;;;;;;;11.82;7.47;;;12.50;99.90;;;;;;4839665;29;20065;-58
2023/05/13 09:17:54;;;;;;;9.48;6.53;;;12.60;99.90;;;;;;4838832;29;20057;-59
2023/05/13 09:20:24;;;;;;;10.75;6.93;;;12.60;99.90;;;;;;4831796;29;20050;-58
2023/05/13 09:23:00;;;;;;;9.75;6.45;;;12.60;99.90;;;;;;4828247;29;20058;-59
2023/05/13 09:25:29;;;;;;;10.07;7.07;;;12.80;99.90;;;;;;4840227;29;20053;-59
2023/05/13 09:28:02;;;;;;;10.93;6.50;;;12.80;99.90;;;;;;4822028;29;20060;-59
2023/05/13 09:30:40;;;;;;;10.32;6.85;;;12.90;99.90;;;;;;4826092;29;20050;-59
2023/05/13 09:33:18;;;;;;;9.27;6.30;;;13.00;99.90;;;;;;4827480;29;20057;-60
2023/05/13 09:35:51;;;;;;;8.57;5.88;;;13.10;99.90;;;;;;4818830;29;20051;-58
2023/05/13 09:38:33;;;;;;;8.30;6.32;;;13.20;99.90;;;;;;4830896;29;20052;-59
2023/05/13 09:41:02;;;;;;;8.55;6.05;;;13.30;99.90;;;;;;4839311;29;20514;-59
2023/05/13 09:43:33;;;;;;;9.95;6.13;;;13.40;99.90;;;;;;4832914;29;20073;-59
2023/05/13 09:46:03;;;;;;;7.28;5.63;;;13.50;99.90;;;;;;4832391;29;20510;-59
2023/05/13 09:48:32;;;;;;;10.80;6.15;;;13.70;99.90;;;;;;4838220;29;20635;-59
2023/05/13 09:51:00;;;;;;;8.52;6.20;;;13.80;99.90;;;;;;4835247;29;20053;-60
2023/05/13 09:53:28;;;;;;;8.55;6.38;;;13.80;99.90;;;;;;4839043;29;20399;-60
2023/05/13 09:55:58;;;;;;;9.20;5.53;;;13.90;99.90;;;;;;4839212;29;20053;-60
2023/05/13 09:58:30;;;;;;;9.68;5.70;;;13.90;99.90;;;;;;4838922;29;20050;-60
2023/05/13 10:00:59;;;;;;;8.65;5.43;;;13.90;99.90;;;;;;4838477;29;20052;-60
2023/05/13 10:03:27;;;;;;;57.38;10.05;;;13.90;99.90;;;;;;4830235;29;20057;-60
2023/05/13 10:05:57;;;;;;;115.13;12.70;;;14.00;99.90;;;;;;4838832;29;20065;-60
2023/05/13 10:08:28;;;;;;;6.65;4.95;;;14.10;99.90;;;;;;4838278;29;20057;-59
2023/05/13 10:10:56;;;;;;;6.10;4.07;;;14.30;99.90;;;;;;4836192;29;20101;-60
2023/05/13 10:13:25;;;;;;;5.65;4.45;;;14.40;99.90;;;;;;4838653;29;20064;-59
2023/05/13 10:15:54;;;;;;;8.30;4.90;;;14.50;99.90;;;;;;4838406;29;20483;-60
2023/05/13 10:18:23;;;;;;;5.63;4.20;;;14.60;99.90;;;;;;4836362;29;20637;-59
2023/05/13 10:20:54;;;;;;;6.63;4.35;;;14.90;99.90;;;;;;4831370;29;20042;-60
2023/05/13 10:23:22;;;;;;;9.07;5.30;;;14.90;99.90;;;;;;4838840;29;20050;-61
2023/05/13 10:25:54;;;;;;;4.78;3.97;;;15.10;99.90;;;;;;4838922;29;20051;-61
2023/05/13 10:28:23;;;;;;;7.35;4.03;;;15.20;99.90;;;;;;4838244;29;20061;-60
2023/05/13 10:30:51;;;;;;;5.15;4.20;;;15.50;99.90;;;;;;4838922;29;20049;-60
2023/05/13 10:33:20;;;;;;;5.13;4.13;;;15.40;99.90;;;;;;4837335;29;20054;-59
2023/05/13 10:36:11;;;;;;;4.60;4.13;;;15.60;99.90;;;;;;4831739;29;20053;-59
2023/05/13 10:39:16;;;;;;;8.35;4.53;;;15.60;99.90;;;;;;4832105;29;20065;-59
2023/05/13 10:42:12;;;;;;;5.65;3.90;;;15.80;99.90;;;;;;4832024;29;20058;-60
2023/05/13 10:44:40;;;;;;;6.15;4.13;;;15.90;99.90;;;;;;4820325;29;20050;-60
2023/05/13 10:47:10;;;;;;;5.55;4.60;;;16.00;99.90;;;;;;4834288;29;20062;-59
2023/05/13 10:49:38;;;;;;;8.13;4.60;;;16.10;99.90;;;;;;4838761;29;20494;-59
2023/05/13 10:52:08;;;;;;;6.10;4.32;;;16.20;99.90;;;;;;4825523;29;20398;-59
2023/05/13 10:54:40;;;;;;;6.40;4.90;;;16.30;99.90;;;;;;4823210;29;20443;-60
2023/05/13 10:57:09;;;;;;;5.28;4.07;;;16.40;99.90;;;;;;4838194;29;20054;-60
2023/05/13 11:00:17;;;;;;;7.50;4.38;;;16.50;99.90;;;;;;4837363;29;20054;-61
2023/05/13 11:02:51;;;;;;;4.90;3.80;;;16.60;99.90;;;;;;4838249;29;20297;-60
2023/05/13 11:05:22;;;;;;;4.43;4.03;;;16.80;99.90;;;;;;4836974;29;20498;-60
2023/05/13 11:07:57;;;;;;;9.52;4.28;;;16.80;99.90;;;;;;4829949;29;20050;-58
2023/05/13 11:10:29;;;;;;;6.57;4.28;;;16.90;99.90;;;;;;4835469;29;20053;-59
2023/05/13 11:13:14;;;;;;;6.32;4.50;;;17.00;99.90;;;;;;4834367;29;20492;-60
2023/05/13 11:15:54;;;;;;;4.55;4.00;;;17.10;99.90;;;;;;4823629;29;20054;-59
2023/05/13 11:18:29;;;;;;;4.75;3.90;;;17.20;99.90;;;;;;4837517;29;20398;-59
2023/05/13 11:21:06;;;;;;;6.18;4.45;;;17.30;99.90;;;;;;4832998;29;20057;-60
2023/05/13 11:23:55;;;;;;;5.55;4.18;;;17.30;99.90;;;;;;4815524;29;20057;-60
2023/05/13 11:26:23;;;;;;;5.90;4.50;;;17.30;99.90;;;;;;4838460;29;20061;-62
2023/05/13 11:29:02;;;;;;;6.28;4.88;;;17.40;99.90;;;;;;4832967;29;20061;-60
2023/05/13 11:31:46;;;;;;;8.73;4.60;;;;;;;;;;4833129;29;20058;-59
2023/05/13 11:34:14;;;;;;;5.68;4.38;;;17.50;99.90;;;;;;4825641;29;20058;-60
2023/05/13 11:36:47;;;;;;;4.40;3.70;;;17.70;99.90;;;;;;4827310;29;20077;-60
2023/05/13 11:39:20;;;;;;;7.53;4.10;;;17.90;99.90;;;;;;4834816;29;20053;-60
2023/05/13 11:41:49;;;;;;;7.35;4.05;;;18.20;99.90;;;;;;4827322;29;20410;-61
2023/05/13 11:44:18;;;;;;;6.50;4.13;;;18.20;99.90;;;;;;4837015;29;20057;-59
2023/05/13 11:46:53;;;;;;;6.97;4.38;;;18.50;99.90;;;;;;4837080;29;20057;-60
2023/05/13 11:49:31;;;;;;;6.78;4.07;;;18.70;99.90;;;;;;4837381;29;20061;-61
2023/05/13 11:52:03;;;;;;;4.70;4.20;;;19.00;99.90;;;;;;4827123;29;20064;-62
2023/05/13 11:54:59;;;;;;;4.68;3.65;;;19.20;99.90;;;;;;4819859;29;20058;-61
2023/05/13 11:57:32;;;;;;;4.53;3.70;;;19.50;99.90;;;;;;4836894;29;20426;-62
2023/05/13 12:00:07;;;;;;;6.32;3.90;;;19.80;99.90;;;;;;4837609;29;20054;-61
2023/05/13 12:02:43;;;;;;;4.35;3.78;;;19.90;99.90;;;;;;4835142;29;20053;-61
2023/05/13 12:05:14;;;;;;;5.53;3.50;;;20.20;99.90;;;;;;4834287;29;20054;-61
2023/05/13 12:07:43;;;;;;;4.97;3.53;;;20.40;98.50;;;;;;4820940;29;20050;-59
2023/05/13 12:10:11;;;;;;;8.52;4.22;;;20.60;98.30;;;;;;4836484;29;20050;-60
2023/05/13 12:12:42;;;;;;;4.30;3.80;;;21.20;98.10;;;;;;4835068;29;20061;-61
2023/05/13 12:15:13;;;;;;;5.78;3.80;;;21.10;98.30;;;;;;4822703;29;20073;-61
2023/05/13 12:17:41;;;;;;;3.65;3.35;;;21.60;96.80;;;;;;4832958;29;20050;-61
2023/05/13 12:20:14;;;;;;;3.92;3.30;;;21.60;97.10;;;;;;4817039;29;20054;-60
2023/05/13 12:22:44;;;;;;;5.20;3.45;;;22.00;96.90;;;;;;4820032;29;20056;-60
2023/05/13 12:25:45;;;;;;;4.38;3.55;;;22.20;96.30;;;;;;4837304;29;20411;-62
2023/05/13 12:28:21;;;;;;;3.63;3.25;;;22.50;90.40;;;;;;4826943;29;20057;-61
2023/05/13 12:30:59;;;;;;;6.53;3.30;;;22.80;92.80;;;;;;4836662;29;20440;-61
2023/05/13 12:33:32;;;;;;;3.10;2.80;;;23.00;91.30;;;;;;4835093;29;20404;-61
2023/05/13 12:36:20;;;;;;;4.65;3.40;;;23.20;91.00;;;;;;4820170;29;20042;-61
2023/05/13 12:38:57;;;;;;;3.80;2.92;;;23.30;87.00;;;;;;4837147;29;20069;-62
2023/05/13 12:41:35;;;;;;;3.72;3.25;;;23.30;85.40;;;;;;4837264;29;20085;-62
2023/05/13 12:44:08;;;;;;;3.83;3.22;;;23.30;84.20;;;;;;4837742;29;20054;-61
2023/05/13 12:46:36;;;;;;;3.60;3.30;;;;;;;;;;4822058;29;20038;-61
2023/05/13 12:49:05;;;;;;;6.57;5.10;;;23.70;83.10;;;;;;4836868;29;20466;-59
2023/05/13 12:51:33;;;;;;;6.38;4.53;;;23.70;84.30;;;;;;4835992;29;20057;-60
2023/05/13 12:54:01;;;;;;;7.75;5.13;;;23.90;88.10;;;;;;4836395;29;20494;-60
2023/05/13 12:56:30;;;;;;;8.68;4.53;;;24.00;84.40;;;;;;4840211;29;20058;-62
2023/05/13 12:58:58;;;;;;;7.20;4.82;;;24.10;87.40;;;;;;4840572;29;20069;-64
2023/05/13 13:01:26;;;;;;;6.00;4.85;;;24.40;82.70;;;;;;4824140;29;20430;-61
2023/05/13 13:03:54;;;;;;;5.05;4.60;;;24.40;84.30;;;;;;4840199;29;20054;-63
2023/05/13 13:06:22;;;;;;;5.95;4.60;;;24.70;85.30;;;;;;4838834;29;20390;-62